Time;durP1;ratioP1;P1;durP2;ratioP2;P2;SDS_P1;SDS_P2;PMS_P1;PMS_P2;Temp;Humidity;BMP_temperature;BMP_pressure;BME280_temperature;BME280_humidity;BME280_pressure;Samples;Min_cycle;Max_cycle;Signal;HPM_P1;HPM_P2
2021/05/07 00:00:33;;;;;;;1.63;0.87;;;10.40;99.90;;;;;;5040986;28;20469;-87
2021/05/07 00:02:59;;;;;;;1.00;0.90;;;10.40;99.90;;;;;;5038427;28;20567;-87
2021/05/07 00:05:26;;;;;;;0.90;0.80;;;10.40;99.90;;;;;;5039597;28;20831;-85
2021/05/07 00:07:52;;;;;;;2.07;1.20;;;10.40;99.90;;;;;;5041027;28;20433;-85
2021/05/07 00:10:19;;;;;;;1.20;1.10;;;10.40;99.90;;;;;;5044155;28;20438;-85
2021/05/07 00:12:45;;;;;;;1.10;1.00;;;10.40;99.90;;;;;;5043530;28;20442;-86
2021/05/07 00:15:16;;;;;;;1.87;0.97;;;10.40;99.90;;;;;;5043897;28;20450;-85
2021/05/07 00:17:42;;;;;;;0.70;0.70;;;10.40;99.90;;;;;;5040698;28;20465;-87
2021/05/07 00:20:10;;;;;;;1.20;1.10;;;10.50;99.90;;;;;;5045717;28;20480;-86
2021/05/07 00:22:38;;;;;;;0.90;0.80;;;10.50;99.90;;;;;;5044189;28;20491;-84
2021/05/07 00:25:05;;;;;;;1.17;1.07;;;10.50;99.90;;;;;;5044571;28;20441;-86
2021/05/07 00:27:31;;;;;;;1.10;1.00;;;10.50;99.90;;;;;;5047692;28;20479;-87
2021/05/07 00:29:59;;;;;;;0.90;0.80;;;10.50;99.90;;;;;;5040783;28;20441;-86
2021/05/07 00:32:26;;;;;;;1.10;1.00;;;10.40;99.90;;;;;;5082700;22;20488;-88
2021/05/07 00:34:52;;;;;;;0.80;0.80;;;10.40;99.90;;;;;;5073992;28;20455;-88
2021/05/07 00:37:18;;;;;;;2.80;1.00;;;10.40;99.90;;;;;;5075793;28;20429;-88
2021/05/07 00:39:44;;;;;;;1.00;0.90;;;10.40;99.90;;;;;;5074133;28;20425;-88
2021/05/07 00:42:12;;;;;;;1.03;0.90;;;10.30;99.90;;;;;;5063534;28;20457;-88
2021/05/07 00:44:38;;;;;;;1.10;0.83;;;10.30;99.90;;;;;;5051694;28;20502;-89
2021/05/07 00:47:04;;;;;;;0.70;0.70;;;10.30;99.90;;;;;;5045184;28;20443;-88
2021/05/07 00:49:33;;;;;;;1.50;0.80;;;10.30;99.90;;;;;;5060126;28;20469;-88
2021/05/07 00:52:00;;;;;;;1.67;1.07;;;10.30;99.90;;;;;;5059599;28;20464;-88
2021/05/07 00:54:27;;;;;;;1.60;1.00;;;10.20;99.90;;;;;;5054138;28;20592;-88
2021/05/07 00:56:54;;;;;;;1.80;0.87;;;10.30;99.90;;;;;;5049839;28;20445;-86
2021/05/07 00:59:20;;;;;;;1.00;0.70;;;10.30;99.90;;;;;;5055098;28;20441;-86
2021/05/07 01:01:48;;;;;;;0.80;0.80;;;10.20;99.90;;;;;;5052000;28;21156;-88
2021/05/07 01:04:14;;;;;;;1.37;0.90;;;10.20;99.90;;;;;;5042830;28;20575;-87
2021/05/07 01:06:41;;;;;;;1.03;0.90;;;10.20;99.90;;;;;;5039253;28;20946;-87
2021/05/07 01:09:08;;;;;;;4.43;0.73;;;10.10;99.90;;;;;;5039318;28;20445;-88
2021/05/07 01:11:34;;;;;;;0.80;0.67;;;10.10;99.90;;;;;;5039121;28;20469;-87
2021/05/07 01:14:00;;;;;;;0.90;0.67;;;10.10;99.90;;;;;;5038521;28;20441;-87
2021/05/07 01:16:28;;;;;;;0.93;0.77;;;10.10;99.90;;;;;;5037815;28;20453;-87
2021/05/07 01:18:54;;;;;;;0.90;0.70;;;10.10;99.90;;;;;;5038368;28;20456;-87
2021/05/07 01:21:21;;;;;;;1.07;0.97;;;10.10;99.90;;;;;;5039391;28;20456;-87
2021/05/07 01:23:47;;;;;;;1.17;0.90;;;10.10;99.90;;;;;;5039896;28;20484;-87
2021/05/07 01:26:14;;;;;;;1.43;0.77;;;10.00;99.90;;;;;;5037332;28;20437;-88
2021/05/07 01:28:40;;;;;;;1.10;1.00;;;9.90;99.90;;;;;;5038294;28;20445;-87
2021/05/07 01:31:06;;;;;;;1.10;0.83;;;9.90;99.90;;;;;;5048710;28;20548;-87
2021/05/07 01:33:32;;;;;;;1.80;1.10;;;9.80;99.90;;;;;;5055605;28;20456;-88
2021/05/07 01:35:59;;;;;;;1.60;0.97;;;9.80;99.90;;;;;;5056253;28;20445;-88
2021/05/07 01:38:26;;;;;;;2.03;1.40;;;9.70;99.90;;;;;;5053222;28;20461;-87
2021/05/07 01:40:53;;;;;;;1.20;0.87;;;9.60;99.90;;;;;;5042239;28;20534;-87
2021/05/07 01:43:20;;;;;;;1.00;0.90;;;9.60;99.90;;;;;;5018959;28;20489;-87
2021/05/07 01:45:48;;;;;;;1.33;1.20;;;9.50;99.90;;;;;;5037885;28;20453;-89
2021/05/07 01:48:15;;;;;;;1.10;0.90;;;9.40;99.90;;;;;;5041344;28;20445;-87
2021/05/07 01:50:43;;;;;;;1.10;1.00;;;9.40;99.90;;;;;;5044303;28;20535;-88
2021/05/07 01:53:10;;;;;;;1.00;0.87;;;9.30;99.90;;;;;;5036964;28;20434;-88
2021/05/07 01:55:39;;;;;;;3.57;1.00;;;9.10;99.90;;;;;;5036071;28;20449;-89
2021/05/07 01:58:07;;;;;;;1.50;0.90;;;9.20;99.90;;;;;;5036071;28;20961;-88
2021/05/07 02:00:34;;;;;;;2.20;0.80;;;9.10;99.90;;;;;;5036730;28;20449;-88
2021/05/07 02:03:04;;;;;;;1.43;0.93;;;9.10;99.90;;;;;;5037135;28;20485;-88
2021/05/07 02:05:32;;;;;;;1.27;1.13;;;9.00;99.90;;;;;;5036660;28;20835;-88
2021/05/07 02:07:59;;;;;;;1.00;0.80;;;9.00;99.90;;;;;;5036357;28;20453;-88
2021/05/07 02:10:27;;;;;;;1.13;1.00;;;8.90;99.90;;;;;;5016257;28;20434;-88
2021/05/07 02:12:55;;;;;;;1.77;1.50;;;8.80;99.90;;;;;;5015898;28;20454;-87
2021/05/07 02:15:23;;;;;;;1.10;1.00;;;8.80;99.90;;;;;;5016286;28;20997;-88
2021/05/07 02:17:50;;;;;;;1.30;1.10;;;8.80;99.90;;;;;;5031752;28;20431;-87
2021/05/07 02:20:18;;;;;;;1.63;1.13;;;8.80;99.90;;;;;;5040700;28;20446;-88
2021/05/07 02:22:46;;;;;;;1.30;1.10;;;8.80;99.90;;;;;;5040180;28;20470;-89
2021/05/07 02:25:14;;;;;;;1.73;1.00;;;8.70;99.90;;;;;;5039906;28;20458;-88
2021/05/07 02:27:40;;;;;;;1.20;1.00;;;8.70;99.90;;;;;;5033920;28;20448;-89
2021/05/07 02:30:10;;;;;;;2.50;1.53;;;8.70;99.90;;;;;;5022796;28;20958;-89
2021/05/07 02:32:36;;;;;;;1.03;0.93;;;8.70;99.90;;;;;;5016993;28;20562;-89
2021/05/07 02:35:03;;;;;;;2.17;1.50;;;8.70;99.90;;;;;;5022485;28;20442;-88
2021/05/07 02:37:30;;;;;;;1.40;1.30;;;8.70;99.90;;;;;;5041395;28;20435;-88
2021/05/07 02:39:56;;;;;;;1.57;1.47;;;8.80;99.90;;;;;;5058844;28;20445;-88
2021/05/07 02:42:22;;;;;;;1.77;1.20;;;8.70;99.90;;;;;;5043934;28;20480;-88
2021/05/07 02:44:48;;;;;;;2.03;1.60;;;8.80;99.90;;;;;;5039195;28;20449;-89
2021/05/07 02:47:15;;;;;;;1.63;1.20;;;8.80;99.90;;;;;;5038791;28;20442;-88
2021/05/07 02:49:42;;;;;;;1.43;1.13;;;8.80;99.90;;;;;;5036480;28;20452;-88
2021/05/07 02:52:08;;;;;;;1.20;1.10;;;8.80;99.90;;;;;;5035995;28;20480;-88
2021/05/07 02:54:35;;;;;;;1.23;1.13;;;8.80;99.90;;;;;;5044196;28;20452;-88
2021/05/07 02:57:01;;;;;;;1.60;1.30;;;8.80;99.90;;;;;;5057904;28;20532;-87
2021/05/07 02:59:28;;;;;;;2.03;1.20;;;8.80;99.90;;;;;;5047232;28;20461;-88
2021/05/07 03:01:54;;;;;;;1.97;1.37;;;8.90;99.90;;;;;;5055636;28;20521;-88
2021/05/07 03:04:21;;;;;;;2.23;1.50;;;8.90;99.90;;;;;;5044147;28;20500;-88
2021/05/07 03:06:48;;;;;;;1.40;1.30;;;8.80;99.90;;;;;;5038169;28;20453;-88
2021/05/07 03:09:21;;;;;;;3.83;1.20;;;8.80;99.90;;;;;;5051655;28;20433;-88
2021/05/07 03:11:47;;;;;;;2.37;1.43;;;8.80;99.90;;;;;;5043893;28;20465;-88
2021/05/07 03:14:14;;;;;;;2.30;1.70;;;8.80;99.90;;;;;;5036403;28;20448;-88
2021/05/07 03:16:40;;;;;;;1.57;1.23;;;8.80;99.90;;;;;;5036476;28;20450;-88
2021/05/07 03:19:06;;;;;;;1.30;1.20;;;8.80;99.90;;;;;;5039590;28;20520;-87
2021/05/07 03:21:33;;;;;;;1.63;1.23;;;8.80;99.90;;;;;;5034718;28;20469;-88
2021/05/07 03:24:00;;;;;;;1.70;1.60;;;8.80;99.90;;;;;;5033992;28;20481;-89
2021/05/07 03:26:26;;;;;;;1.80;1.70;;;8.80;99.90;;;;;;5033910;28;20449;-88
2021/05/07 03:28:53;;;;;;;1.80;1.60;;;8.80;99.90;;;;;;5051163;28;20554;-88
2021/05/07 03:31:19;;;;;;;1.80;1.40;;;8.80;99.90;;;;;;5055316;28;20541;-88
2021/05/07 03:33:45;;;;;;;1.53;1.13;;;8.80;99.90;;;;;;5036776;28;20445;-89
2021/05/07 03:36:12;;;;;;;1.73;1.43;;;8.80;99.90;;;;;;5034313;28;20452;-89
2021/05/07 03:38:39;;;;;;;1.90;1.63;;;8.80;99.90;;;;;;5044265;28;20426;-89
2021/05/07 03:41:05;;;;;;;1.73;1.63;;;8.80;99.90;;;;;;5052784;28;20465;-89
2021/05/07 03:43:32;;;;;;;2.20;2.00;;;8.80;99.90;;;;;;5049571;28;20465;-88
2021/05/07 03:46:06;;;;;;;3.03;2.37;;;8.70;99.90;;;;;;5057298;28;20433;-88
2021/05/07 03:48:33;;;;;;;3.57;2.30;;;8.60;99.90;;;;;;5051563;28;20444;-87
2021/05/07 03:51:00;;;;;;;2.17;1.97;;;8.60;99.90;;;;;;5050518;28;20461;-88
2021/05/07 03:53:26;;;;;;;2.60;2.40;;;8.60;99.90;;;;;;5034738;28;20461;-88
2021/05/07 03:55:56;;;;;;;2.20;2.00;;;8.60;99.90;;;;;;5035519;28;20444;-88
2021/05/07 03:58:23;;;;;;;2.20;2.00;;;8.60;99.90;;;;;;5045222;28;20454;-87
2021/05/07 04:00:49;;;;;;;2.43;2.23;;;8.50;99.90;;;;;;5042580;28;20473;-88
2021/05/07 04:03:15;;;;;;;2.70;2.50;;;8.50;99.90;;;;;;5034668;28;20489;-88
2021/05/07 04:05:42;;;;;;;2.80;2.50;;;8.50;99.90;;;;;;5033400;28;20503;-87
2021/05/07 04:08:12;;;;;;;4.50;3.37;;;8.50;99.90;;;;;;5033192;28;20481;-88
2021/05/07 04:10:41;;;;;;;4.17;3.67;;;8.50;99.90;;;;;;5048233;28;20445;-88
2021/05/07 04:15:53;;;;;;;5.70;5.10;;;8.40;99.90;;;;;;5035869;28;20529;-87
2021/05/07 04:18:19;;;;;;;3.30;3.00;;;8.40;99.90;;;;;;5033229;28;20465;-87
2021/05/07 04:20:46;;;;;;;3.60;3.30;;;8.40;99.90;;;;;;5032976;28;20468;-87
2021/05/07 04:23:12;;;;;;;2.93;2.70;;;8.30;99.90;;;;;;5045399;28;20491;-88
2021/05/07 04:25:38;;;;;;;4.30;3.20;;;8.30;99.90;;;;;;5056342;28;20476;-88
2021/05/07 04:28:05;;;;;;;3.00;2.80;;;8.30;99.90;;;;;;5053978;28;20449;-87
2021/05/07 04:30:32;;;;;;;4.40;3.17;;;8.20;99.90;;;;;;5035613;28;20449;-87
2021/05/07 04:32:58;;;;;;;3.60;3.30;;;8.20;99.90;;;;;;5055238;28;20457;-87
2021/05/07 04:35:25;;;;;;;3.73;3.40;;;8.20;99.90;;;;;;5051377;28;20957;-88
2021/05/07 04:37:51;;;;;;;3.90;2.80;;;8.20;99.90;;;;;;5039828;28;20445;-89
2021/05/07 04:40:17;;;;;;;3.70;3.40;;;8.30;99.90;;;;;;5056253;28;20518;-88
2021/05/07 04:42:44;;;;;;;4.37;3.90;;;8.30;99.90;;;;;;5041069;28;20468;-87
2021/05/07 04:45:11;;;;;;;3.87;3.57;;;8.20;99.90;;;;;;5049988;28;20461;-87
2021/05/07 04:47:38;;;;;;;4.90;4.50;;;8.30;99.90;;;;;;5039531;28;20437;-88
2021/05/07 04:50:05;;;;;;;4.37;3.97;;;8.20;99.90;;;;;;5036555;28;20449;-89
2021/05/07 04:52:32;;;;;;;3.37;3.17;;;8.30;99.90;;;;;;5035204;28;20520;-88
2021/05/07 04:54:58;;;;;;;3.57;3.27;;;8.30;99.90;;;;;;5038010;28;20433;-89
2021/05/07 04:57:24;;;;;;;3.13;2.80;;;8.20;99.90;;;;;;5035140;28;20833;-89
2021/05/07 04:59:50;;;;;;;3.23;2.97;;;8.20;99.90;;;;;;5036220;28;20453;-89
2021/05/07 05:02:17;;;;;;;3.63;2.83;;;8.20;99.90;;;;;;5050321;28;20469;-89
2021/05/07 05:04:44;;;;;;;4.07;3.50;;;8.10;99.90;;;;;;5056576;28;20484;-88
2021/05/07 05:07:10;;;;;;;3.30;3.00;;;8.10;99.90;;;;;;5036931;28;20900;-89
2021/05/07 05:09:37;;;;;;;3.40;3.17;;;8.00;99.90;;;;;;5056804;28;20428;-89
2021/05/07 05:12:04;;;;;;;3.10;2.90;;;8.10;99.90;;;;;;5042739;28;20561;-88
2021/05/07 05:14:30;;;;;;;4.57;3.80;;;8.10;99.90;;;;;;5034811;28;20456;-88
2021/05/07 05:16:56;;;;;;;3.23;2.93;;;8.10;99.90;;;;;;5015604;28;20460;-88
2021/05/07 05:19:22;;;;;;;3.47;3.17;;;8.00;99.90;;;;;;5033269;28;20457;-88
2021/05/07 05:21:49;;;;;;;3.20;2.90;;;8.00;99.90;;;;;;5033607;28;20527;-87
2021/05/07 05:24:15;;;;;;;4.47;4.07;;;8.00;99.90;;;;;;5033017;28;20496;-88
2021/05/07 05:26:42;;;;;;;4.20;3.80;;;8.00;99.90;;;;;;5046880;28;20476;-88
2021/05/07 05:29:11;;;;;;;5.70;3.90;;;8.00;99.90;;;;;;5059867;28;20433;-88
2021/05/07 05:31:37;;;;;;;4.67;3.63;;;8.10;99.90;;;;;;5052941;28;20473;-88
2021/05/07 05:34:03;;;;;;;6.63;4.40;;;8.10;99.90;;;;;;5050435;28;20437;-87
2021/05/07 05:36:29;;;;;;;4.63;4.10;;;8.10;99.90;;;;;;5052430;28;20444;-87
2021/05/07 05:38:57;;;;;;;4.60;4.20;;;8.00;99.90;;;;;;5038671;28;20441;-88
2021/05/07 05:41:23;;;;;;;3.90;3.60;;;8.00;99.90;;;;;;5037519;28;20457;-88
2021/05/07 05:43:49;;;;;;;5.47;4.97;;;8.00;99.90;;;;;;5036216;28;20866;-87
2021/05/07 05:46:16;;;;;;;6.43;4.40;;;8.10;99.90;;;;;;5035650;28;20453;-88
2021/05/07 05:48:42;;;;;;;5.33;4.60;;;8.10;99.90;;;;;;5034464;28;20475;-87
2021/05/07 05:51:09;;;;;;;6.77;5.73;;;8.10;99.90;;;;;;5034994;28;20462;-87
2021/05/07 05:53:35;;;;;;;8.10;4.90;;;8.10;99.90;;;;;;5035385;28;20860;-87
2021/05/07 05:56:03;;;;;;;4.43;4.03;;;8.10;99.90;;;;;;5056601;28;20417;-88
2021/05/07 05:58:31;;;;;;;4.83;4.33;;;8.20;99.90;;;;;;5059279;28;20476;-87
2021/05/07 06:00:57;;;;;;;5.07;4.63;;;8.20;99.90;;;;;;5058692;28;20518;-87
2021/05/07 06:03:23;;;;;;;6.77;5.07;;;8.20;99.90;;;;;;5058045;28;20496;-88
2021/05/07 06:05:49;;;;;;;5.37;4.90;;;8.30;99.90;;;;;;5046261;28;20465;-87
2021/05/07 06:08:16;;;;;;;4.60;4.20;;;8.30;99.90;;;;;;5037579;28;20984;-87
2021/05/07 06:10:42;;;;;;;6.70;5.60;;;8.30;99.90;;;;;;5037226;28;20441;-88
2021/05/07 06:13:09;;;;;;;5.43;4.00;;;8.30;99.90;;;;;;5037765;28;20442;-87
2021/05/07 06:15:35;;;;;;;5.53;4.90;;;8.40;99.90;;;;;;5037675;28;20425;-88
2021/05/07 06:18:01;;;;;;;6.37;4.73;;;8.50;99.90;;;;;;5036604;28;20453;-88
2021/05/07 06:20:28;;;;;;;8.37;4.67;;;8.50;99.90;;;;;;5049492;28;20437;-88
2021/05/07 06:22:54;;;;;;;4.67;4.23;;;8.60;99.90;;;;;;5055148;28;20471;-87
2021/05/07 06:25:24;;;;;;;7.43;4.73;;;8.70;99.90;;;;;;5047755;28;20501;-88
2021/05/07 06:27:50;;;;;;;6.20;5.17;;;8.70;99.90;;;;;;5036761;28;20446;-88
2021/05/07 06:30:18;;;;;;;6.97;5.43;;;8.80;99.90;;;;;;5037750;28;20441;-87
2021/05/07 06:32:44;;;;;;;6.07;5.43;;;8.80;99.90;;;;;;5053930;28;20521;-88
2021/05/07 06:35:11;;;;;;;8.97;6.47;;;8.80;99.90;;;;;;5042890;28;20442;-89
2021/05/07 06:37:39;;;;;;;7.40;5.83;;;8.80;99.90;;;;;;5037897;28;20430;-87
2021/05/07 06:40:07;;;;;;;8.80;5.60;;;8.80;99.90;;;;;;5056569;28;20980;-87
2021/05/07 06:42:35;;;;;;;7.53;6.80;;;8.90;99.90;;;;;;5050469;28;20520;-87
2021/05/07 06:45:02;;;;;;;6.07;5.30;;;8.90;99.90;;;;;;5037748;28;20481;-88
2021/05/07 06:47:30;;;;;;;9.53;7.00;;;9.00;99.90;;;;;;5035793;28;20457;-88
2021/05/07 06:49:56;;;;;;;7.63;7.03;;;9.20;99.90;;;;;;5036048;28;20446;-88
2021/05/07 06:52:23;;;;;;;7.60;6.80;;;9.20;99.90;;;;;;5036432;28;20464;-88
2021/05/07 06:54:49;;;;;;;7.17;6.13;;;9.30;99.90;;;;;;5035514;28;21221;-89
2021/05/07 06:57:16;;;;;;;7.80;7.10;;;9.30;99.90;;;;;;5035766;28;20941;-88
2021/05/07 06:59:46;;;;;;;6.90;6.30;;;9.40;99.90;;;;;;5036834;28;20527;-89
2021/05/07 07:02:12;;;;;;;8.30;6.70;;;9.40;99.90;;;;;;5032056;28;20472;-88
2021/05/07 07:04:39;;;;;;;6.93;6.23;;;9.30;99.90;;;;;;5033877;28;20469;-88
2021/05/07 07:07:06;;;;;;;7.37;6.67;;;9.30;99.90;;;;;;5034043;28;20922;-88
2021/05/07 07:09:32;;;;;;;8.30;6.93;;;9.30;99.90;;;;;;5034250;28;20445;-88
2021/05/07 07:12:02;;;;;;;8.07;7.27;;;9.30;99.90;;;;;;5033924;28;20571;-88
2021/05/07 07:14:29;;;;;;;11.30;6.90;;;9.30;99.90;;;;;;5036165;28;20445;-88
2021/05/07 07:16:55;;;;;;;7.50;6.80;;;9.20;99.90;;;;;;5042960;28;20441;-88
2021/05/07 07:19:22;;;;;;;6.93;6.33;;;9.20;99.90;;;;;;5043989;28;20584;-89
2021/05/07 07:21:49;;;;;;;10.43;7.10;;;9.20;99.90;;;;;;5044342;28;20495;-89
2021/05/07 07:24:16;;;;;;;11.43;7.97;;;9.10;99.90;;;;;;5044165;28;20465;-89
2021/05/07 07:26:42;;;;;;;8.70;7.23;;;9.20;99.90;;;;;;5039222;28;20530;-91
2021/05/07 07:29:09;;;;;;;7.53;6.80;;;9.10;99.90;;;;;;5038626;28;20506;-88
2021/05/07 07:31:36;;;;;;;10.00;8.00;;;9.10;99.90;;;;;;5038854;28;21163;-89
2021/05/07 07:34:02;;;;;;;9.03;8.13;;;9.10;99.90;;;;;;5041341;28;20525;-89
2021/05/07 07:36:28;;;;;;;11.10;9.67;;;9.10;99.90;;;;;;5040604;28;20441;-88
2021/05/07 07:38:56;;;;;;;8.33;7.50;;;9.20;99.90;;;;;;5041548;28;20426;-89
2021/05/07 07:41:22;;;;;;;8.10;7.30;;;9.20;99.90;;;;;;5041127;28;20536;-89
2021/05/07 07:43:49;;;;;;;9.13;7.90;;;9.30;99.90;;;;;;5039810;28;21047;-88
2021/05/07 07:46:15;;;;;;;8.23;7.53;;;9.50;99.90;;;;;;5041935;28;20491;-88
2021/05/07 07:48:42;;;;;;;8.00;7.20;;;9.50;99.90;;;;;;5054157;28;20418;-89
2021/05/07 07:51:08;;;;;;;9.17;7.40;;;9.60;99.90;;;;;;5057937;28;20441;-89
2021/05/07 07:53:34;;;;;;;8.10;7.27;;;9.60;99.90;;;;;;5049300;28;20445;-88
2021/05/07 07:56:02;;;;;;;8.70;7.37;;;9.60;99.90;;;;;;5057366;28;20433;-89
2021/05/07 07:58:31;;;;;;;9.77;8.40;;;9.60;99.90;;;;;;5049892;28;20823;-88
2021/05/07 08:00:58;;;;;;;10.03;7.80;;;9.70;99.90;;;;;;5056386;28;20443;-89
2021/05/07 08:03:24;;;;;;;10.13;9.23;;;9.90;99.90;;;;;;5049470;28;20465;-90
2021/05/07 08:05:50;;;;;;;9.77;8.17;;;10.00;99.90;;;;;;5057082;28;20440;-88
2021/05/07 08:08:17;;;;;;;9.23;8.33;;;10.20;99.90;;;;;;5056202;28;20454;-88
2021/05/07 08:10:44;;;;;;;7.50;6.77;;;10.30;99.90;;;;;;5057099;28;20433;-88
2021/05/07 08:13:11;;;;;;;8.37;7.50;;;10.30;99.90;;;;;;5056679;28;20438;-89
2021/05/07 08:15:38;;;;;;;7.57;6.83;;;10.50;99.90;;;;;;5055934;28;20418;-88
2021/05/07 08:18:04;;;;;;;8.53;6.57;;;11.00;99.90;;;;;;5054640;28;20442;-88
2021/05/07 08:20:31;;;;;;;7.20;6.60;;;11.70;99.90;;;;;;5050713;28;20437;-88
2021/05/07 08:22:58;;;;;;;6.77;5.80;;;12.30;97.90;;;;;;5045609;28;20476;-89
2021/05/07 08:25:24;;;;;;;6.80;6.20;;;13.70;96.40;;;;;;5041082;28;20483;-88
2021/05/07 08:27:51;;;;;;;8.57;6.97;;;14.80;93.10;;;;;;5046164;28;20473;-89
2021/05/07 08:30:18;;;;;;;8.87;6.43;;;15.20;91.10;;;;;;5041733;28;20470;-88
2021/05/07 08:32:44;;;;;;;6.97;6.27;;;15.70;88.50;;;;;;5043091;28;20551;-89
2021/05/07 08:35:12;;;;;;;6.90;6.30;;;15.80;85.20;;;;;;5043235;28;20449;-88
2021/05/07 08:37:42;;;;;;;7.60;6.90;;;16.30;83.70;;;;;;5039165;28;20495;-88
2021/05/07 08:40:11;;;;;;;7.07;5.70;;;17.00;81.20;;;;;;5049099;28;20449;-88
2021/05/07 08:42:43;;;;;;;6.33;5.30;;;17.90;78.10;;;;;;5056906;28;20530;-90
2021/05/07 08:45:11;;;;;;;6.43;5.87;;;17.60;74.60;;;;;;5042899;28;20477;-90
2021/05/07 08:47:39;;;;;;;6.27;5.77;;;16.70;75.40;;;;;;5042537;28;20525;-88
2021/05/07 08:50:08;;;;;;;7.50;6.17;;;15.30;79.00;;;;;;5037825;28;20452;-88
2021/05/07 08:52:35;;;;;;;5.50;5.10;;;14.90;81.60;;;;;;5032607;28;20457;-87
2021/05/07 08:55:04;;;;;;;5.90;5.40;;;14.80;81.90;;;;;;5033289;28;20443;-89
2021/05/07 08:57:30;;;;;;;5.40;4.90;;;14.80;80.50;;;;;;5034041;28;20454;-89
2021/05/07 08:59:56;;;;;;;5.53;4.90;;;14.60;81.00;;;;;;5033364;28;20444;-88
2021/05/07 09:02:27;;;;;;;5.50;5.00;;;15.30;80.30;;;;;;5039528;28;20461;-88
2021/05/07 09:04:56;;;;;;;5.60;4.97;;;15.30;78.30;;;;;;5042019;28;20484;-86
2021/05/07 09:07:23;;;;;;;4.67;4.20;;;15.60;78.10;;;;;;5039555;28;20923;-87
2021/05/07 09:09:52;;;;;;;6.63;5.40;;;17.90;73.20;;;;;;5037349;28;20457;-87
2021/05/07 09:12:32;;;;;;;5.80;5.10;;;18.00;63.40;;;;;;5036839;28;20519;-87
2021/05/07 09:15:00;;;;;;;6.20;4.67;;;17.50;64.20;;;;;;5035851;28;20437;-87
2021/05/07 09:17:28;;;;;;;5.40;4.67;;;19.20;63.20;;;;;;5051400;28;20465;-88
2021/05/07 09:20:10;;;;;;;6.03;5.53;;;20.80;57.50;;;;;;5040054;28;20442;-88
2021/05/07 09:22:37;;;;;;;5.30;4.80;;;22.10;55.30;;;;;;5038781;28;20470;-87
2021/05/07 09:25:09;;;;;;;5.87;5.37;;;23.00;52.90;;;;;;5044953;28;20482;-88
2021/05/07 09:27:35;;;;;;;6.50;4.70;;;23.50;49.20;;;;;;5049914;28;20448;-88
2021/05/07 09:30:04;;;;;;;4.40;4.10;;;23.20;48.60;;;;;;5044033;28;20444;-88
2021/05/07 09:32:32;;;;;;;5.37;4.87;;;22.00;47.70;;;;;;5038252;28;20482;-88
2021/05/07 09:35:32;;;;;;;5.20;4.30;;;20.20;49.60;;;;;;5036763;28;20461;-88
2021/05/07 09:38:02;;;;;;;6.43;4.87;;;18.50;51.70;;;;;;5032684;28;20485;-87
2021/05/07 09:40:29;;;;;;;5.07;4.47;;;18.00;54.70;;;;;;5041182;28;20938;-87
2021/05/07 09:43:08;;;;;;;4.73;4.30;;;19.50;53.40;;;;;;5055694;28;20464;-87
2021/05/07 09:45:39;;;;;;;4.37;3.90;;;19.80;49.20;;;;;;5040439;28;20583;-88
2021/05/07 09:48:17;;;;;;;5.33;4.37;;;19.10;47.90;;;;;;5039054;28;20446;-86
2021/05/07 09:50:45;;;;;;;5.10;4.43;;;20.90;48.20;;;;;;5034441;28;20450;-86
2021/05/07 09:53:14;;;;;;;5.93;4.80;;;22.50;46.00;;;;;;5034458;28;20495;-87
2021/05/07 09:55:41;;;;;;;3.93;3.50;;;24.00;45.00;;;;;;5035669;28;20974;-88
2021/05/07 09:58:07;;;;;;;5.23;4.40;;;24.00;41.70;;;;;;5037684;28;20854;-87
2021/05/07 10:00:34;;;;;;;5.83;5.03;;;23.00;42.90;;;;;;5036974;28;20966;-87
2021/05/07 10:03:00;;;;;;;4.77;4.20;;;21.30;44.40;;;;;;5034939;28;20449;-87
2021/05/07 10:05:32;;;;;;;4.03;3.70;;;22.40;44.70;;;;;;5034961;28;20437;-87
2021/05/07 10:07:59;;;;;;;4.87;4.10;;;23.50;43.40;;;;;;5035808;28;20464;-88
2021/05/07 10:10:27;;;;;;;4.67;4.27;;;24.30;40.60;;;;;;5038465;28;20446;-88
2021/05/07 10:12:55;;;;;;;3.70;3.40;;;24.80;40.80;;;;;;5036488;28;20431;-88
2021/05/07 10:15:30;;;;;;;4.30;3.90;;;24.40;38.10;;;;;;5035122;28;20444;-88
2021/05/07 10:17:57;;;;;;;5.93;4.90;;;23.70;39.20;;;;;;5036329;28;20934;-88
2021/05/07 10:20:27;;;;;;;7.20;6.50;;;22.80;40.70;;;;;;5035210;28;20455;-86
2021/05/07 10:22:54;;;;;;;6.20;5.70;;;23.80;40.80;;;;;;5033546;28;20449;-88
2021/05/07 10:25:23;;;;;;;4.37;4.03;;;24.50;39.60;;;;;;5045678;28;20475;-86
2021/05/07 10:28:41;;;;;;;4.30;3.90;;;25.00;37.60;;;;;;5054303;28;21031;-91
2021/05/07 10:31:09;;;;;;;6.23;4.27;;;25.30;35.70;;;;;;5032023;28;20463;-85
2021/05/07 10:33:35;;;;;;;4.57;4.17;;;25.30;36.40;;;;;;5054345;28;20445;-86
2021/05/07 10:36:02;;;;;;;4.43;4.13;;;25.80;35.20;;;;;;5056560;28;20459;-85
2021/05/07 10:38:28;;;;;;;4.80;3.70;;;23.90;36.50;;;;;;5042796;28;20439;-86
2021/05/07 10:41:07;;;;;;;4.30;4.00;;;21.80;37.80;;;;;;5058084;28;20458;-85
2021/05/07 10:43:37;;;;;;;4.10;3.67;;;20.20;40.20;;;;;;5049016;28;20533;-86
2021/05/07 10:46:06;;;;;;;4.80;4.40;;;18.60;43.00;;;;;;5048431;28;20497;-86
2021/05/07 10:48:33;;;;;;;4.50;4.10;;;17.40;44.60;;;;;;5056472;28;20507;-86
2021/05/07 10:51:04;;;;;;;6.77;5.90;;;16.50;47.10;;;;;;5045525;28;20461;-86
2021/05/07 10:53:33;;;;;;;4.70;4.30;;;16.40;49.30;;;;;;5045105;28;20438;-87
2021/05/07 10:55:59;;;;;;;5.23;4.10;;;16.40;47.80;;;;;;5037422;28;20511;-86
2021/05/07 10:58:35;;;;;;;4.20;3.80;;;17.10;49.30;;;;;;5035696;28;20448;-87
2021/05/07 11:01:15;;;;;;;6.47;5.33;;;18.70;45.40;;;;;;5036328;28;20456;-87
2021/05/07 11:03:41;;;;;;;5.90;4.17;;;19.60;43.60;;;;;;5035463;28;20477;-86
2021/05/07 11:06:08;;;;;;;4.43;3.30;;;20.30;42.70;;;;;;5046007;28;20443;-86
2021/05/07 11:08:34;;;;;;;3.70;3.40;;;19.70;42.10;;;;;;5042531;28;20437;-86
2021/05/07 11:11:00;;;;;;;4.33;3.93;;;19.30;42.40;;;;;;5040535;28;20453;-87
2021/05/07 11:13:27;;;;;;;4.37;3.80;;;19.90;43.50;;;;;;5038999;28;20445;-86
2021/05/07 11:15:57;;;;;;;4.30;4.00;;;21.00;42.30;;;;;;5032224;28;20498;-86
2021/05/07 11:18:29;;;;;;;6.00;3.70;;;22.10;39.60;;;;;;5032600;28;20510;-87
2021/05/07 11:20:55;;;;;;;4.73;4.33;;;22.30;39.10;;;;;;5033360;28;20468;-86
2021/05/07 11:23:29;;;;;;;6.20;5.13;;;22.20;37.80;;;;;;5040186;28;20457;-89
2021/05/07 11:25:56;;;;;;;4.63;4.33;;;23.30;37.00;;;;;;5043152;28;20443;-89
2021/05/07 11:28:23;;;;;;;6.27;4.00;;;24.30;36.40;;;;;;5046212;28;20965;-89
2021/05/07 11:30:51;;;;;;;4.33;4.03;;;25.00;35.70;;;;;;5041831;28;20455;-90
2021/05/07 11:33:20;;;;;;;3.97;3.67;;;25.10;34.00;;;;;;5048850;28;20442;-90
2021/05/07 11:35:47;;;;;;;3.17;2.90;;;25.30;33.60;;;;;;5055496;28;20455;-90
2021/05/07 11:38:14;;;;;;;4.53;3.80;;;26.20;32.10;;;;;;5047772;28;20508;-89
2021/05/07 11:40:42;;;;;;;4.33;3.37;;;26.30;32.10;;;;;;5048369;28;20456;-89
2021/05/07 11:43:11;;;;;;;3.53;3.10;;;25.60;31.00;;;;;;5045227;28;20455;-89
2021/05/07 11:45:38;;;;;;;4.03;3.73;;;23.70;32.40;;;;;;5044318;28;20465;-90
2021/05/07 11:48:13;;;;;;;3.70;3.40;;;22.90;35.70;;;;;;5042778;28;20445;-88
2021/05/07 11:50:41;;;;;;;3.63;3.03;;;22.90;34.60;;;;;;5053650;28;20447;-90
2021/05/07 11:53:18;;;;;;;3.13;2.83;;;22.40;34.60;;;;;;5044306;28;20506;-89
2021/05/07 11:55:55;;;;;;;3.97;3.67;;;21.80;35.90;;;;;;5047931;28;20445;-88
2021/05/07 11:59:03;;;;;;;3.77;3.40;;;23.50;36.90;;;;;;5054846;28;20445;-87
2021/05/07 12:08:50;;;;;;;5.80;3.60;;;23.20;36.80;;;;;;4902841;29;20437;-87
2021/05/07 12:11:31;;;;;;;10.53;4.60;;;21.30;36.20;;;;;;5010216;28;20457;-87
2021/05/07 12:14:48;;;;;;;;;;;;;;;;;;;;;
2021/05/07 12:21:09;;;;;;;;;;;;;;;;;;;;;
2021/05/07 12:23:59;;;;;;;4.57;3.57;;;18.80;42.70;;;;;;4909325;29;20504;-88
2021/05/07 12:27:05;;;;;;;4.33;2.83;;;18.10;41.50;;;;;;4908048;29;20468;-88
2021/05/07 12:41:41;;;;;;;3.63;3.33;;;16.40;42.90;;;;;;5032612;28;20469;-88
2021/05/07 12:44:57;;;;;;;3.17;2.87;;;15.50;44.20;;;;;;5052399;28;20461;-89
2021/05/07 12:47:29;;;;;;;4.00;3.67;;;15.00;45.60;;;;;;5045489;28;20456;-88
2021/05/07 12:50:41;;;;;;;5.13;3.10;;;14.80;46.50;;;;;;5061618;28;20437;-88
2021/05/07 12:53:46;;;;;;;5.10;3.00;;;16.10;46.90;;;;;;5056308;28;20437;-89
2021/05/07 12:56:13;;;;;;;3.53;3.20;;;19.40;42.50;;;;;;5043083;28;20527;-87
2021/05/07 12:58:40;;;;;;;5.47;4.33;;;22.20;38.30;;;;;;5041632;28;20425;-87
2021/05/07 13:01:08;;;;;;;3.73;3.40;;;23.10;35.70;;;;;;5039908;28;20459;-86
2021/05/07 13:03:34;;;;;;;4.37;3.90;;;23.60;34.50;;;;;;5038272;28;20484;-87
2021/05/07 13:06:00;;;;;;;4.83;3.73;;;24.40;33.30;;;;;;5037293;28;20887;-86
2021/05/07 13:08:27;;;;;;;3.73;3.03;;;24.50;33.40;;;;;;5039188;28;20436;-86
2021/05/07 13:10:53;;;;;;;4.20;3.73;;;25.30;33.70;;;;;;5052896;28;20438;-87
2021/05/07 13:13:20;;;;;;;4.80;3.17;;;24.00;33.10;;;;;;5053863;28;20440;-89
2021/05/07 13:15:48;;;;;;;4.10;3.40;;;22.50;34.90;;;;;;5052477;28;20636;-87
2021/05/07 13:18:15;;;;;;;4.10;3.70;;;21.30;36.90;;;;;;5050921;28;20459;-88
2021/05/07 13:20:42;;;;;;;4.70;3.57;;;20.50;38.00;;;;;;5047994;28;20476;-87
2021/05/07 13:23:08;;;;;;;4.33;4.00;;;19.70;39.10;;;;;;5051176;28;20535;-87
2021/05/07 13:25:36;;;;;;;4.73;4.07;;;18.70;40.40;;;;;;5052861;28;20481;-87